createdAt,value
2023-05-14T00:01:46.456Z,77.90
2023-05-14T00:04:12.963Z,78.04
2023-05-14T00:06:39.419Z,78.10
2023-05-14T00:09:06.152Z,78.66
2023-05-14T00:11:32.647Z,78.96
2023-05-14T00:13:59.137Z,79.10
2023-05-14T00:16:25.708Z,79.26
2023-05-14T00:18:52.317Z,79.04
2023-05-14T00:21:18.795Z,79.39
2023-05-14T00:23:45.213Z,79.86
2023-05-14T00:26:11.673Z,80.15
2023-05-14T00:28:38.744Z,79.74
2023-05-14T00:31:05.351Z,80.06
2023-05-14T00:33:32.563Z,79.90
2023-05-14T00:35:59.479Z,79.98
2023-05-14T00:38:28.405Z,80.16
2023-05-14T00:40:55.311Z,80.05
2023-05-14T00:43:22.724Z,79.91
2023-05-14T00:45:54.047Z,80.32
2023-05-14T00:48:21.643Z,80.96
2023-05-14T00:50:49.790Z,81.28
2023-05-14T00:53:16.915Z,80.79
2023-05-14T00:55:43.544Z,80.88
2023-05-14T00:58:12.539Z,80.53
2023-05-14T01:00:40.850Z,81.29
2023-05-14T01:03:08.237Z,81.62
2023-05-14T01:06:07.010Z,81.64
2023-05-14T01:08:58.536Z,81.91
2023-05-14T01:11:47.838Z,82.19
2023-05-14T01:14:22.094Z,81.73
2023-05-14T01:16:52.509Z,82.20
2023-05-14T01:19:46.665Z,82.22
2023-05-14T01:22:13.787Z,82.41
2023-05-14T01:24:40.917Z,82.73
2023-05-14T01:27:17.292Z,82.69
2023-05-14T01:29:53.230Z,83.01
2023-05-14T01:32:21.620Z,82.87
2023-05-14T01:34:50.819Z,83.03
2023-05-14T01:37:17.943Z,83.26
2023-05-14T01:39:45.782Z,83.65
2023-05-14T01:42:13.130Z,83.34
2023-05-14T01:44:39.733Z,83.31
2023-05-14T01:47:06.324Z,84.05
2023-05-14T01:49:32.882Z,83.97
2023-05-14T01:51:59.313Z,84.19
2023-05-14T01:54:25.865Z,84.06
2023-05-14T01:56:52.264Z,83.73
2023-05-14T01:59:18.707Z,84.27
2023-05-14T02:01:45.234Z,84.07
2023-05-14T02:04:11.778Z,84.29
2023-05-14T02:06:41.345Z,83.54
2023-05-14T02:09:07.868Z,83.64
2023-05-14T02:11:34.342Z,83.97
2023-05-14T02:14:00.760Z,83.97
2023-05-14T02:16:27.453Z,84.21
2023-05-14T02:18:53.991Z,84.20
2023-05-14T02:21:20.617Z,84.20
2023-05-14T02:23:49.336Z,84.59
2023-05-14T02:26:16.446Z,84.75
2023-05-14T02:28:43.778Z,84.78
2023-05-14T02:31:12.712Z,84.42
2023-05-14T02:33:39.247Z,84.19
2023-05-14T02:36:05.930Z,84.81
2023-05-14T02:38:32.415Z,84.94
2023-05-14T02:40:58.944Z,85.38
2023-05-14T02:43:25.398Z,85.26
2023-05-14T02:45:51.913Z,85.76
2023-05-14T02:48:18.735Z,85.84
2023-05-14T02:50:45.864Z,85.78
2023-05-14T02:53:12.451Z,85.83
2023-05-14T02:55:38.850Z,85.88
2023-05-14T02:58:05.232Z,85.75
2023-05-14T03:00:31.745Z,86.39
2023-05-14T03:02:58.639Z,85.74
2023-05-14T03:05:25.654Z,85.93
2023-05-14T03:07:53.494Z,86.34
2023-05-14T03:10:20.506Z,85.60
2023-05-14T03:12:47.519Z,86.57
2023-05-14T03:15:14.006Z,86.08
2023-05-14T03:17:40.543Z,86.54
2023-05-14T03:20:07.469Z,86.55
2023-05-14T03:22:35.661Z,86.63
2023-05-14T03:25:02.091Z,86.83
2023-05-14T03:27:28.539Z,86.91
2023-05-14T03:29:55.157Z,87.06
2023-05-14T03:32:21.635Z,87.19
2023-05-14T03:34:48.141Z,86.90
2023-05-14T03:37:14.620Z,87.34
2023-05-14T03:39:41.078Z,86.97
2023-05-14T03:42:07.641Z,87.53
2023-05-14T03:44:34.209Z,87.15
2023-05-14T03:47:00.608Z,87.17
2023-05-14T03:49:27.584Z,87.15
2023-05-14T03:51:55.160Z,86.85
2023-05-14T03:54:21.730Z,87.31
2023-05-14T03:56:48.175Z,87.54
2023-05-14T03:59:14.674Z,87.29
2023-05-14T04:01:41.102Z,87.01
2023-05-14T04:04:07.818Z,87.20
2023-05-14T04:06:34.690Z,87.38
2023-05-14T04:09:02.118Z,86.80
2023-05-14T04:11:28.730Z,87.14
2023-05-14T04:13:55.519Z,87.26
2023-05-14T04:16:22.453Z,87.09
2023-05-14T04:18:49.145Z,87.17
2023-05-14T04:21:15.735Z,87.43
2023-05-14T04:23:42.155Z,86.87
2023-05-14T04:26:08.666Z,86.89
2023-05-14T04:28:35.199Z,86.74
2023-05-14T04:31:01.714Z,86.53
2023-05-14T04:33:28.206Z,87.26
2023-05-14T04:35:54.672Z,87.02
2023-05-14T04:38:21.232Z,86.72
2023-05-14T04:40:47.689Z,86.55
2023-05-14T04:43:14.158Z,86.57
2023-05-14T04:45:41.176Z,86.03
2023-05-14T04:48:07.893Z,85.82
2023-05-14T04:50:35.096Z,85.30
2023-05-14T04:53:01.684Z,84.97
2023-05-14T04:55:28.248Z,84.30
2023-05-14T04:57:54.869Z,83.68
2023-05-14T05:00:22.207Z,83.28
2023-05-14T05:02:49.029Z,84.05
2023-05-14T05:05:15.564Z,83.81
2023-05-14T05:07:42.012Z,83.07
2023-05-14T05:10:08.902Z,82.96
2023-05-14T05:15:02.128Z,82.25
2023-05-14T05:17:29.568Z,82.16
2023-05-14T05:19:56.253Z,82.12
2023-05-14T05:22:23.742Z,82.60
2023-05-14T05:24:50.307Z,82.38
2023-05-14T05:27:16.929Z,82.21
2023-05-14T05:29:44.522Z,81.48
2023-05-14T05:32:10.972Z,81.33
2023-05-14T05:34:37.478Z,81.43
2023-05-14T05:37:05.855Z,81.14
2023-05-14T05:39:35.986Z,81.01
2023-05-14T05:42:02.765Z,81.17
2023-05-14T05:44:29.357Z,81.02
2023-05-14T05:46:57.228Z,81.18
2023-05-14T05:49:23.950Z,81.19
2023-05-14T05:51:50.541Z,81.62
2023-05-14T05:54:17.118Z,81.24
2023-05-14T05:56:43.710Z,81.10
2023-05-14T05:59:10.247Z,80.91
2023-05-14T06:01:37.113Z,80.98
2023-05-14T06:04:06.162Z,81.00
2023-05-14T06:06:32.990Z,80.40
2023-05-14T06:08:59.605Z,80.30
2023-05-14T06:11:26.720Z,80.39
2023-05-14T06:13:53.814Z,77.86
2023-05-14T06:16:20.903Z,73.78
2023-05-14T06:18:47.624Z,73.69
2023-05-14T06:21:14.192Z,75.09
2023-05-14T06:23:41.213Z,76.32
2023-05-14T06:26:07.619Z,76.47
2023-05-14T06:28:34.146Z,76.09
2023-05-14T06:31:00.678Z,74.14
2023-05-14T06:33:30.803Z,72.78
2023-05-14T06:36:03.492Z,71.68
2023-05-14T06:38:29.907Z,66.94
2023-05-14T06:40:56.381Z,64.18
2023-05-14T06:43:22.802Z,62.65
2023-05-14T06:45:50.130Z,61.88
2023-05-14T06:48:18.878Z,61.30
2023-05-14T06:50:46.429Z,54.86
2023-05-14T06:53:12.989Z,54.92
2023-05-14T06:55:39.736Z,56.75
2023-05-14T06:58:07.290Z,54.60
2023-05-14T07:00:33.789Z,55.26
2023-05-14T07:03:00.349Z,57.82
2023-05-14T07:05:26.839Z,53.55
2023-05-14T07:07:53.359Z,48.76
2023-05-14T07:10:19.851Z,45.05
2023-05-14T07:12:46.383Z,44.64
2023-05-14T07:15:12.844Z,43.67
2023-05-14T07:17:39.632Z,43.21
2023-05-14T07:20:06.902Z,48.28
2023-05-14T07:22:33.352Z,50.13
2023-05-14T07:24:59.937Z,45.37
2023-05-14T07:27:26.534Z,47.01
2023-05-14T07:29:53.061Z,46.90
2023-05-14T07:32:19.473Z,45.23
2023-05-14T07:34:46.299Z,43.45
2023-05-14T07:37:12.753Z,44.41
2023-05-14T07:39:41.547Z,41.96
2023-05-14T07:42:08.050Z,42.51
2023-05-14T07:44:34.577Z,41.86
2023-05-14T07:47:01.253Z,42.92
2023-05-14T07:49:27.778Z,44.73
2023-05-14T07:51:54.266Z,43.33
2023-05-14T07:54:20.824Z,45.06
2023-05-14T07:56:47.358Z,42.67
2023-05-14T07:59:13.853Z,44.74
2023-05-14T08:01:40.599Z,45.13
2023-05-14T08:04:07.164Z,44.89
2023-05-14T08:06:34.050Z,44.94
2023-05-14T08:09:00.716Z,45.21
2023-05-14T08:11:27.143Z,50.34
2023-05-14T08:13:53.610Z,50.25
2023-05-14T08:16:20.126Z,49.63
2023-05-14T08:18:48.136Z,49.88
2023-05-14T08:21:14.796Z,49.40
2023-05-14T08:23:41.312Z,47.52
2023-05-14T08:26:07.746Z,47.33
2023-05-14T08:28:34.195Z,47.11
2023-05-14T08:31:00.740Z,47.37
2023-05-14T08:33:27.316Z,45.76
2023-05-14T08:35:54.679Z,46.19
2023-05-14T08:38:21.124Z,45.54
2023-05-14T08:40:58.355Z,45.69
2023-05-14T08:43:29.745Z,44.18
2023-05-14T08:46:01.907Z,45.27
2023-05-14T08:48:32.890Z,44.35
2023-05-14T08:51:00.447Z,45.77
2023-05-14T08:53:27.235Z,46.36
2023-05-14T08:55:54.046Z,44.99
2023-05-14T08:58:20.692Z,47.99
2023-05-14T09:00:47.590Z,46.48
2023-05-14T09:03:14.979Z,45.72
2023-05-14T09:05:41.968Z,44.09
2023-05-14T09:08:08.418Z,46.87
2023-05-14T09:10:34.857Z,49.08
2023-05-14T09:13:01.436Z,44.24
2023-05-14T09:15:29.645Z,42.99
2023-05-14T09:17:58.612Z,44.42
2023-05-14T09:20:25.879Z,48.25
2023-05-14T09:22:54.283Z,46.08
2023-05-14T09:25:26.496Z,47.15
2023-05-14T09:27:56.113Z,46.75
2023-05-14T09:30:25.133Z,46.00
2023-05-14T09:32:54.498Z,45.54
2023-05-14T09:35:22.834Z,48.67
2023-05-14T09:37:51.792Z,46.53
2023-05-14T09:40:20.475Z,47.00
2023-05-14T09:42:50.936Z,48.51
2023-05-14T09:45:17.849Z,45.44
2023-05-14T09:47:45.013Z,46.08
2023-05-14T09:50:12.272Z,46.25
2023-05-14T09:52:39.106Z,43.70
2023-05-14T09:55:06.393Z,43.37
2023-05-14T09:57:33.606Z,47.46
2023-05-14T10:00:00.363Z,42.35
2023-05-14T10:02:41.164Z,45.45
2023-05-14T10:05:08.312Z,45.60
2023-05-14T10:07:41.639Z,44.27
2023-05-14T10:10:13.601Z,42.08
2023-05-14T10:12:40.619Z,42.01
2023-05-14T10:15:23.920Z,43.83
2023-05-14T10:17:56.605Z,41.53
2023-05-14T10:20:25.185Z,42.99
2023-05-14T10:22:52.173Z,44.00
2023-05-14T10:25:18.900Z,40.85
2023-05-14T10:27:45.588Z,44.99
2023-05-14T10:30:12.877Z,42.11
2023-05-14T10:32:41.716Z,41.28
2023-05-14T10:35:20.549Z,44.84
2023-05-14T10:37:47.244Z,43.70
2023-05-14T10:40:14.089Z,41.60
2023-05-14T10:42:43.195Z,42.70
2023-05-14T10:45:18.649Z,40.37
2023-05-14T10:47:47.233Z,39.86
2023-05-14T10:50:17.656Z,45.34
2023-05-14T10:52:45.712Z,45.70
2023-05-14T10:55:16.680Z,43.21
2023-05-14T10:57:45.325Z,41.19
2023-05-14T11:00:13.958Z,44.95
2023-05-14T11:02:42.809Z,41.50
2023-05-14T11:05:13.702Z,44.65
2023-05-14T11:07:42.168Z,43.55
2023-05-14T11:10:14.263Z,45.84
2023-05-14T11:12:46.093Z,42.84
2023-05-14T11:15:16.502Z,40.23
2023-05-14T11:17:45.262Z,47.05
2023-05-14T11:20:15.058Z,44.91
2023-05-14T11:22:42.960Z,45.55
2023-05-14T11:25:10.656Z,43.69
2023-05-14T11:27:38.663Z,44.48
2023-05-14T11:30:11.843Z,44.65
2023-05-14T11:32:38.390Z,44.36
2023-05-14T11:35:05.868Z,42.85
2023-05-14T11:37:33.392Z,46.02
2023-05-14T11:40:01.699Z,42.83
2023-05-14T11:42:28.297Z,45.98
2023-05-14T11:44:54.877Z,44.35
2023-05-14T11:47:22.318Z,44.36
2023-05-14T11:49:49.410Z,45.47
2023-05-14T11:52:19.432Z,43.95
2023-05-14T11:54:46.617Z,43.51
2023-05-14T11:57:16.285Z,44.80
2023-05-14T11:59:42.971Z,43.98
2023-05-14T12:02:14.470Z,46.38
2023-05-14T12:04:42.322Z,43.22
2023-05-14T12:07:13.329Z,44.04
2023-05-14T12:09:50.886Z,44.68
2023-05-14T12:12:23.706Z,41.10
2023-05-14T12:14:51.009Z,42.73
2023-05-14T12:17:19.652Z,43.57
2023-05-14T12:19:48.542Z,45.56
2023-05-14T12:22:17.504Z,46.61
2023-05-14T12:24:53.401Z,44.71
2023-05-14T12:27:24.860Z,43.96
2023-05-14T12:30:09.110Z,45.46
2023-05-14T12:32:45.829Z,45.44
2023-05-14T12:35:12.507Z,45.60
2023-05-14T12:37:39.979Z,44.05
2023-05-14T12:40:09.417Z,43.34
2023-05-14T12:42:36.394Z,44.52
2023-05-14T12:45:05.482Z,45.36
2023-05-14T12:47:32.450Z,45.81
2023-05-14T12:49:58.920Z,45.02
2023-05-14T12:52:36.610Z,44.08
2023-05-14T12:55:05.532Z,43.38
2023-05-14T12:57:32.258Z,47.63
2023-05-14T12:59:58.946Z,46.27
2023-05-14T13:02:25.490Z,46.90
2023-05-14T13:04:51.897Z,46.23
2023-05-14T13:07:18.510Z,46.43
2023-05-14T13:09:45.011Z,46.44
2023-05-14T13:12:11.533Z,46.14
2023-05-14T13:14:38.022Z,46.46
2023-05-14T13:17:05.189Z,44.67
2023-05-14T13:19:32.472Z,47.51
2023-05-14T13:21:58.884Z,47.77
2023-05-14T13:24:25.462Z,48.55
2023-05-14T13:26:51.878Z,46.21
2023-05-14T13:29:18.375Z,45.99
2023-05-14T13:31:44.806Z,49.56
2023-05-14T13:34:11.285Z,49.18
2023-05-14T13:36:39.604Z,49.35
2023-05-14T13:39:07.126Z,45.81
2023-05-14T13:41:35.620Z,45.99
2023-05-14T13:44:02.062Z,46.81
2023-05-14T13:46:28.877Z,47.66
2023-05-14T13:48:55.426Z,50.83
2023-05-14T13:51:24.790Z,46.82
2023-05-14T13:53:51.219Z,48.79
2023-05-14T13:56:17.694Z,48.18
2023-05-14T13:58:44.171Z,51.52
2023-05-14T14:01:10.790Z,48.65
2023-05-14T14:03:37.272Z,46.67
2023-05-14T14:06:03.805Z,47.56
2023-05-14T14:08:31.079Z,50.07
2023-05-14T14:10:57.666Z,48.23
2023-05-14T14:13:24.432Z,50.01
2023-05-14T14:15:51.423Z,48.15
2023-05-14T14:18:17.953Z,49.43
2023-05-14T14:20:44.429Z,47.10
2023-05-14T14:23:10.914Z,47.37
2023-05-14T14:25:37.339Z,48.79
2023-05-14T14:28:03.943Z,50.54
2023-05-14T14:30:30.396Z,51.04
2023-05-14T14:32:56.972Z,52.03
2023-05-14T14:35:25.052Z,51.07
2023-05-14T14:37:53.613Z,49.32
2023-05-14T14:40:20.163Z,47.12
2023-05-14T14:42:47.948Z,47.35
2023-05-14T14:45:14.455Z,49.32
2023-05-14T14:47:46.220Z,48.85
2023-05-14T14:50:13.642Z,49.49
2023-05-14T14:52:45.444Z,48.71
2023-05-14T14:55:12.574Z,49.48
2023-05-14T14:57:39.108Z,51.42
2023-05-14T15:00:06.865Z,52.67
2023-05-14T15:02:33.427Z,48.84
2023-05-14T15:05:00.151Z,48.20
2023-05-14T15:07:26.637Z,49.22
2023-05-14T15:09:53.052Z,49.85
2023-05-14T15:12:19.574Z,48.81
2023-05-14T15:14:46.014Z,48.84
2023-05-14T15:17:12.426Z,52.13
2023-05-14T15:19:38.879Z,49.76
2023-05-14T15:22:05.412Z,50.96
2023-05-14T15:24:31.940Z,49.42
2023-05-14T15:27:00.067Z,51.16
2023-05-14T15:29:26.646Z,49.78
2023-05-14T15:31:53.205Z,50.42
2023-05-14T15:34:20.768Z,48.65
2023-05-14T15:36:47.315Z,48.06
2023-05-14T15:39:13.794Z,48.00
2023-05-14T15:41:40.485Z,49.96
2023-05-14T15:44:07.311Z,50.55
2023-05-14T15:46:33.861Z,48.21
2023-05-14T15:49:00.337Z,47.98
2023-05-14T15:51:26.832Z,51.34
2023-05-14T15:53:55.066Z,50.07
2023-05-14T15:56:23.047Z,50.59
2023-05-14T15:58:55.813Z,51.51
2023-05-14T16:01:22.382Z,50.49
2023-05-14T16:03:49.000Z,50.73
2023-05-14T16:06:16.020Z,50.98
2023-05-14T16:08:42.414Z,50.90
2023-05-14T16:11:10.521Z,51.85
2023-05-14T16:13:38.375Z,52.18
2023-05-14T16:16:05.229Z,53.38
2023-05-14T16:18:31.696Z,53.83
2023-05-14T16:20:58.254Z,53.64
2023-05-14T16:23:24.772Z,55.09
2023-05-14T16:25:51.314Z,56.08
2023-05-14T16:28:17.799Z,55.48
2023-05-14T16:30:44.288Z,55.22
2023-05-14T16:33:10.726Z,56.50
2023-05-14T16:35:37.350Z,58.42
2023-05-14T16:38:04.072Z,56.43
2023-05-14T16:40:30.622Z,56.70
2023-05-14T16:42:57.113Z,58.00
2023-05-14T16:45:24.032Z,57.83
2023-05-14T16:47:50.738Z,57.33
2023-05-14T16:50:17.294Z,57.07
2023-05-14T16:52:43.737Z,55.87
2023-05-14T16:55:10.648Z,55.63
2023-05-14T16:57:37.313Z,56.88
2023-05-14T17:00:06.043Z,55.80
2023-05-14T17:02:33.332Z,56.67
2023-05-14T17:05:01.418Z,58.35
2023-05-14T17:07:28.076Z,58.67
2023-05-14T17:09:54.685Z,58.09
2023-05-14T17:12:21.347Z,59.28
2023-05-14T17:14:50.318Z,60.25
2023-05-14T17:17:16.937Z,61.10
2023-05-14T17:19:43.715Z,63.63
2023-05-14T17:22:11.537Z,63.57
2023-05-14T17:24:39.041Z,63.11
2023-05-14T17:27:06.208Z,65.24
2023-05-14T17:29:32.713Z,65.83
2023-05-14T17:31:59.375Z,65.67
2023-05-14T17:34:25.894Z,65.67
2023-05-14T17:36:52.364Z,65.32
2023-05-14T17:39:18.777Z,65.21
2023-05-14T17:41:45.275Z,65.93
2023-05-14T17:44:13.038Z,65.95
2023-05-14T17:46:41.789Z,66.63
2023-05-14T17:49:08.271Z,65.53
2023-05-14T17:51:34.799Z,65.68
2023-05-14T17:54:01.213Z,66.74
2023-05-14T17:56:27.870Z,67.58
2023-05-14T17:58:54.406Z,67.69
2023-05-14T18:01:20.965Z,68.29
2023-05-14T18:03:47.545Z,68.32
2023-05-14T18:06:14.942Z,68.28
2023-05-14T18:08:41.720Z,68.91
2023-05-14T18:11:08.214Z,69.45
2023-05-14T18:13:34.846Z,69.71
2023-05-14T18:16:01.482Z,70.46
2023-05-14T18:18:28.041Z,70.47
2023-05-14T18:20:54.596Z,69.99
2023-05-14T18:23:21.188Z,70.92
2023-05-14T18:25:48.130Z,70.96
2023-05-14T18:28:15.335Z,71.43
2023-05-14T18:30:43.410Z,70.77
2023-05-14T18:33:10.219Z,71.05
2023-05-14T18:35:37.063Z,71.18
2023-05-14T18:38:03.603Z,71.26
2023-05-14T18:40:30.111Z,71.21
2023-05-14T18:42:59.018Z,70.97
2023-05-14T18:45:25.876Z,71.25
2023-05-14T18:47:52.724Z,71.32
2023-05-14T18:50:19.404Z,72.30
2023-05-14T18:52:45.970Z,72.09
2023-05-14T18:55:12.462Z,72.58
2023-05-14T18:57:38.919Z,71.83
2023-05-14T19:00:06.194Z,71.34
2023-05-14T19:02:32.753Z,71.81
2023-05-14T19:04:59.262Z,71.75
2023-05-14T19:07:27.166Z,72.51
2023-05-14T19:09:53.654Z,73.23
2023-05-14T19:12:20.141Z,73.60
2023-05-14T19:14:46.545Z,74.96
2023-05-14T19:17:13.060Z,75.78
2023-05-14T19:19:39.673Z,76.01
2023-05-14T19:22:06.629Z,76.27
2023-05-14T19:24:33.141Z,76.72
2023-05-14T19:26:59.733Z,76.10
2023-05-14T19:29:26.275Z,76.82
2023-05-14T19:31:52.786Z,76.70
2023-05-14T19:34:19.238Z,75.93
2023-05-14T19:36:45.835Z,75.85
2023-05-14T19:39:12.257Z,75.01
2023-05-14T19:41:38.859Z,75.34
2023-05-14T19:44:05.415Z,75.53
2023-05-14T19:46:31.972Z,75.81
2023-05-14T19:48:58.479Z,76.33
2023-05-14T19:51:25.430Z,76.95
2023-05-14T19:53:54.040Z,76.99
2023-05-14T19:56:21.557Z,76.84
2023-05-14T19:58:48.055Z,77.42
2023-05-14T20:01:15.025Z,77.56
2023-05-14T20:03:41.854Z,77.54
2023-05-14T20:06:08.418Z,77.53
2023-05-14T20:08:34.868Z,78.02
2023-05-14T20:11:01.541Z,78.14
2023-05-14T20:13:28.039Z,78.99
2023-05-14T20:15:55.070Z,78.61
2023-05-14T20:18:21.774Z,78.70
2023-05-14T20:20:49.047Z,78.86
2023-05-14T20:23:15.891Z,78.89
2023-05-14T20:25:43.055Z,78.86
2023-05-14T20:28:10.134Z,78.95
2023-05-14T20:30:36.656Z,78.92
2023-05-14T20:33:06.689Z,79.31
2023-05-14T20:35:33.238Z,79.39
2023-05-14T20:38:00.160Z,79.93
2023-05-14T20:40:26.630Z,79.11
2023-05-14T20:42:53.204Z,79.48
2023-05-14T20:45:19.752Z,80.02
2023-05-14T20:47:46.567Z,79.71
2023-05-14T20:50:13.775Z,79.92
2023-05-14T20:52:40.687Z,80.08
2023-05-14T20:55:07.645Z,80.20
2023-05-14T20:57:34.242Z,80.41
2023-05-14T21:00:01.532Z,80.44
2023-05-14T21:02:27.984Z,80.33
2023-05-14T21:04:54.728Z,80.42
2023-05-14T21:07:21.236Z,80.63
2023-05-14T21:09:52.147Z,81.07
2023-05-14T21:12:19.300Z,80.88
2023-05-14T21:14:45.792Z,81.15
2023-05-14T21:17:12.526Z,81.06
2023-05-14T21:19:39.083Z,81.44
2023-05-14T21:22:06.463Z,81.05
2023-05-14T21:24:32.959Z,81.55
2023-05-14T21:26:59.419Z,81.83
2023-05-14T21:29:25.985Z,81.46
2023-05-14T21:31:52.597Z,81.52
2023-05-14T21:34:19.048Z,82.00
2023-05-14T21:36:45.566Z,82.22
2023-05-14T21:39:12.036Z,82.49
2023-05-14T21:41:38.512Z,82.31
2023-05-14T21:44:04.971Z,82.84
2023-05-14T21:46:31.958Z,82.72
2023-05-14T21:48:58.475Z,83.16
2023-05-14T21:51:24.954Z,83.17
2023-05-14T21:53:51.329Z,82.97
2023-05-14T21:56:17.789Z,83.20
2023-05-14T21:58:44.489Z,83.44
2023-05-14T22:01:11.598Z,83.57
2023-05-14T22:03:38.515Z,83.86
2023-05-14T22:06:05.521Z,83.95
2023-05-14T22:08:32.263Z,83.70
2023-05-14T22:10:58.750Z,84.39
2023-05-14T22:13:25.275Z,84.37
2023-05-14T22:16:01.178Z,84.82
2023-05-14T22:18:36.505Z,85.29
2023-05-14T22:21:03.333Z,85.25
2023-05-14T22:23:29.989Z,85.07
2023-05-14T22:25:56.926Z,85.59
2023-05-14T22:28:23.562Z,85.22
2023-05-14T22:30:50.158Z,85.19
2023-05-14T22:33:16.618Z,85.58
2023-05-14T22:35:43.083Z,85.71
2023-05-14T22:38:09.494Z,85.50
2023-05-14T22:40:36.429Z,85.60
2023-05-14T22:43:02.903Z,85.86
2023-05-14T22:45:29.418Z,85.97
2023-05-14T22:47:55.878Z,86.17
2023-05-14T22:50:22.477Z,85.74
2023-05-14T22:52:48.884Z,86.17
2023-05-14T22:55:15.465Z,86.10
2023-05-14T22:57:41.948Z,85.79
2023-05-14T23:00:09.001Z,86.28
2023-05-14T23:02:35.711Z,87.11
2023-05-14T23:05:02.216Z,87.17
2023-05-14T23:07:28.796Z,87.07
2023-05-14T23:09:55.262Z,87.50
2023-05-14T23:12:21.744Z,87.36
2023-05-14T23:14:48.212Z,87.34
2023-05-14T23:17:14.744Z,87.33
2023-05-14T23:19:41.307Z,87.34
2023-05-14T23:22:07.799Z,87.69
2023-05-14T23:24:34.352Z,87.21
2023-05-14T23:27:00.787Z,87.57
2023-05-14T23:29:27.262Z,87.71
2023-05-14T23:31:53.829Z,87.47
2023-05-14T23:34:21.990Z,87.71
2023-05-14T23:36:48.590Z,87.50
2023-05-14T23:39:16.203Z,87.92
2023-05-14T23:41:42.698Z,87.64
2023-05-14T23:44:09.098Z,87.71
2023-05-14T23:46:35.682Z,87.66
2023-05-14T23:49:02.151Z,88.08
2023-05-14T23:51:28.580Z,87.69
2023-05-14T23:54:00.150Z,87.87
2023-05-14T23:56:30.318Z,88.11
2023-05-14T23:58:56.877Z,88.01
